Time;durP1;ratioP1;P1;durP2;ratioP2;P2;SDS_P1;SDS_P2;PMS_P1;PMS_P2;Temp;Humidity;BMP_temperature;BMP_pressure;BME280_temperature;BME280_humidity;BME280_pressure;Samples;Min_cycle;Max_cycle;Signal;HPM_P1;HPM_P2
2021/05/16 00:00:42;;;;;;;13.43;3.90;;;;;;;12.73;69.98;99967.06;4955910;28;20055;-51
2021/05/16 00:03:12;;;;;;;10.10;3.92;;;;;;;12.70;70.25;99968.50;4954805;29;20518;-53
2021/05/16 00:05:42;;;;;;;9.98;3.60;;;;;;;12.68;70.35;99961.72;4958911;28;20086;-54
2021/05/16 00:08:10;;;;;;;14.88;4.82;;;;;;;12.65;70.50;99968.59;4958808;28;20502;-55
2021/05/16 00:10:38;;;;;;;14.10;4.57;;;;;;;12.64;70.27;99958.75;4958549;28;20140;-51
2021/05/16 00:13:05;;;;;;;15.63;4.18;;;;;;;12.59;69.56;99961.59;4957721;28;20109;-53
2021/05/16 00:15:34;;;;;;;9.63;3.45;;;;;;;12.53;70.37;99962.78;4950850;29;20039;-55
2021/05/16 00:18:02;;;;;;;17.38;5.20;;;;;;;12.50;69.69;99964.19;4950666;29;20074;-52
2021/05/16 00:20:31;;;;;;;12.45;3.95;;;;;;;12.50;70.31;99968.88;4955172;28;20126;-53
2021/05/16 00:22:58;;;;;;;12.40;3.90;;;;;;;12.52;69.86;99964.72;4955600;28;20043;-55
2021/05/16 00:25:26;;;;;;;14.63;4.00;;;;;;;12.50;69.93;99968.88;4954584;28;20572;-53
2021/05/16 00:27:56;;;;;;;14.75;4.38;;;;;;;12.48;69.64;99973.81;4954988;28;20094;-51
2021/05/16 00:30:25;;;;;;;14.93;4.30;;;;;;;12.49;69.79;99964.53;4955412;28;20485;-53
2021/05/16 00:32:57;;;;;;;12.93;3.97;;;;;;;12.48;69.31;99971.09;4954245;28;20051;-54
2021/05/16 00:35:28;;;;;;;14.55;4.10;;;;;;;12.47;70.08;99973.00;4956505;28;20143;-55
2021/05/16 00:37:57;;;;;;;14.80;4.68;;;;;;;12.49;69.25;99970.00;4961730;28;20047;-52
2021/05/16 00:40:25;;;;;;;18.13;4.15;;;;;;;12.49;68.99;99972.72;4943768;29;20043;-51
2021/05/16 00:42:52;;;;;;;21.20;4.65;;;;;;;12.48;68.75;99976.53;4955739;28;20139;-56
2021/05/16 00:45:22;;;;;;;12.07;3.75;;;;;;;12.50;69.31;99974.34;4955871;28;20066;-53
2021/05/16 00:47:53;;;;;;;14.02;4.13;;;;;;;12.48;69.08;99971.09;4956641;28;20047;-52
2021/05/16 00:50:26;;;;;;;13.32;4.25;;;;;;;12.46;68.90;99978.75;4955268;28;20058;-51
2021/05/16 00:52:54;;;;;;;12.98;3.70;;;;;;;12.41;68.94;99976.13;4956348;28;20039;-53
2021/05/16 00:55:23;;;;;;;14.15;4.22;;;;;;;12.38;69.00;99976.75;4953501;29;20185;-52
2021/05/16 00:57:51;;;;;;;16.10;4.50;;;;;;;12.39;68.80;99978.34;4955037;28;20079;-52
2021/05/16 01:00:30;;;;;;;17.45;4.07;;;;;;;12.38;68.79;99984.94;4954735;28;20047;-54
2021/05/16 01:03:26;;;;;;;19.70;4.72;;;;;;;12.35;69.59;99970.75;4934185;29;20518;-51
2021/05/16 01:05:56;;;;;;;14.77;4.43;;;;;;;12.34;69.12;99971.88;4968980;28;20126;-52
2021/05/16 01:08:29;;;;;;;16.88;4.90;;;;;;;12.36;68.98;99972.41;4954168;28;20075;-51
2021/05/16 01:10:57;;;;;;;14.73;3.85;;;;;;;12.34;69.08;99977.34;4954147;28;20043;-52
2021/05/16 01:13:26;;;;;;;13.80;3.83;;;;;;;12.33;68.71;99970.25;4969615;28;20054;-55
2021/05/16 01:15:54;;;;;;;16.92;4.63;;;;;;;12.34;68.72;99973.81;4954095;28;20414;-54
2021/05/16 01:18:22;;;;;;;14.80;4.00;;;;;;;12.31;69.08;99972.50;4954049;28;20050;-53
2021/05/16 01:20:51;;;;;;;16.83;4.13;;;;;;;12.29;69.06;99969.25;4954225;28;20047;-50
2021/05/16 01:23:32;;;;;;;15.07;4.78;;;;;;;12.32;68.89;99971.38;4968731;28;20078;-52
2021/05/16 01:26:05;;;;;;;17.45;4.55;;;;;;;12.32;68.57;99963.19;4968875;28;20062;-51
2021/05/16 01:28:33;;;;;;;16.25;4.20;;;;;;;12.34;68.82;99966.44;4954221;28;20055;-54
2021/05/16 01:31:01;;;;;;;17.40;4.82;;;;;;;12.31;69.16;99967.03;4953795;28;20046;-55
2021/05/16 01:33:29;;;;;;;16.65;4.38;;;;;;;12.31;68.86;99967.03;4954180;28;20031;-56
2021/05/16 01:35:56;;;;;;;17.13;4.35;;;;;;;12.31;68.36;99977.97;4954167;28;20054;-53
2021/05/16 01:38:24;;;;;;;23.88;5.35;;;;;;;12.30;68.33;99970.84;4968458;28;20047;-51
2021/05/16 01:40:52;;;;;;;17.23;4.80;;;;;;;12.28;68.64;99967.63;4953960;28;20463;-56
2021/05/16 01:43:33;;;;;;;16.30;4.75;;;;;;;12.26;68.52;99969.84;4952534;29;20090;-56
2021/05/16 01:46:01;;;;;;;17.15;4.35;;;;;;;12.29;68.86;99969.25;4953946;28;20055;-54
2021/05/16 01:48:29;;;;;;;17.90;4.13;;;;;;;12.33;68.85;99963.97;4953842;28;20035;-55
2021/05/16 01:50:56;;;;;;;14.73;3.95;;;;;;;12.35;68.37;99965.31;4953922;28;20454;-55
2021/05/16 01:53:27;;;;;;;13.80;3.80;;;;;;;12.34;68.48;99969.16;4953714;28;20473;-56
2021/05/16 01:55:55;;;;;;;18.67;4.80;;;;;;;12.35;68.10;99961.75;4954043;28;20047;-53
2021/05/16 01:58:23;;;;;;;18.35;4.65;;;;;;;12.33;68.52;99963.97;4952515;29;20059;-56
2021/05/16 02:00:51;;;;;;;19.48;5.28;;;;;;;12.31;68.75;99971.66;4954098;28;20126;-54
2021/05/16 02:03:31;;;;;;;16.95;4.32;;;;;;;12.27;68.68;99968.75;4968726;28;20053;-55
2021/05/16 02:06:00;;;;;;;22.80;5.13;;;;;;;12.27;68.81;99973.41;4953356;28;20063;-55
2021/05/16 02:08:28;;;;;;;19.83;4.80;;;;;;;12.26;69.20;99961.63;4952446;29;20048;-55
2021/05/16 02:10:58;;;;;;;19.85;4.45;;;;;;;12.28;68.52;99961.34;4952298;29;20581;-55
2021/05/16 02:13:27;;;;;;;16.25;4.43;;;;;;;12.25;68.65;99965.50;4968807;28;20067;-52
2021/05/16 02:16:11;;;;;;;16.15;4.45;;;;;;;12.23;68.68;99962.25;4968633;28;20410;-53
2021/05/16 02:18:41;;;;;;;15.32;4.47;;;;;;;12.22;68.52;99963.38;4952157;29;20090;-52
2021/05/16 02:21:13;;;;;;;17.67;4.43;;;;;;;12.23;68.28;99970.44;4952128;29;20052;-55
2021/05/16 02:23:45;;;;;;;15.68;3.75;;;;;;;12.27;68.55;99971.47;4953493;28;20059;-54
2021/05/16 02:26:19;;;;;;;18.05;4.43;;;;;;;12.25;68.30;99976.41;4968397;28;20421;-55
2021/05/16 02:28:47;;;;;;;18.13;5.10;;;;;;;12.22;68.24;99979.75;4953830;28;20050;-53
2021/05/16 02:31:16;;;;;;;21.77;4.95;;;;;;;12.22;68.65;99968.00;4953422;28;20293;-56
2021/05/16 02:33:45;;;;;;;15.48;4.40;;;;;;;12.20;67.76;99971.03;4952374;29;20502;-55
2021/05/16 02:36:13;;;;;;;18.25;4.50;;;;;;;12.21;67.41;99967.19;4953123;28;20502;-52
2021/05/16 02:38:42;;;;;;;16.67;4.80;;;;;;;12.18;68.03;99970.53;4968372;28;20508;-53
2021/05/16 02:41:11;;;;;;;20.88;5.35;;;;;;;12.14;67.64;99972.22;4952060;29;20070;-54
2021/05/16 02:43:40;;;;;;;21.27;5.10;;;;;;;12.12;67.75;99977.19;4952649;29;20054;-52
2021/05/16 02:46:08;;;;;;;20.13;4.75;;;;;;;12.13;67.36;99971.44;4968023;28;20434;-53
2021/05/16 02:48:36;;;;;;;19.95;5.22;;;;;;;12.13;67.82;99970.63;4953157;28;20039;-53
2021/05/16 02:51:06;;;;;;;16.23;4.97;;;;;;;12.13;67.62;99971.44;4952119;29;20055;-53
2021/05/16 02:53:38;;;;;;;18.52;5.05;;;;;;;12.12;67.08;99968.97;4968123;28;20063;-55
2021/05/16 02:56:08;;;;;;;20.67;5.10;;;;;;;12.10;67.66;99963.84;4969674;28;20069;-52
2021/05/16 02:58:35;;;;;;;22.63;5.32;;;;;;;12.11;66.58;99964.66;4956891;28;20502;-53
2021/05/16 03:01:05;;;;;;;19.20;4.72;;;;;;;12.11;66.84;99961.91;4956697;28;20073;-54
2021/05/16 03:03:40;;;;;;;19.52;5.40;;;;;;;12.13;66.52;99967.88;4971496;28;20047;-53
2021/05/16 03:06:10;;;;;;;21.23;5.50;;;;;;;12.14;67.40;99966.75;4955505;29;20075;-55
2021/05/16 03:08:39;;;;;;;17.67;4.45;;;;;;;12.15;67.31;99969.22;4955565;29;20078;-53
2021/05/16 03:11:07;;;;;;;16.65;4.80;;;;;;;12.15;67.24;99968.41;4971443;28;20047;-52
2021/05/16 03:13:36;;;;;;;17.17;4.70;;;;;;;12.14;67.02;99964.03;4955422;29;20052;-54
2021/05/16 03:16:14;;;;;;;16.85;4.97;;;;;;;12.15;67.66;99969.22;4955364;29;20043;-55
2021/05/16 03:18:42;;;;;;;18.35;4.50;;;;;;;12.13;66.74;99967.88;4955672;28;20078;-53
2021/05/16 03:21:10;;;;;;;19.95;5.32;;;;;;;12.11;67.20;99970.09;4971302;28;20043;-54
2021/05/16 03:23:38;;;;;;;25.73;5.80;;;;;;;12.10;67.44;99972.03;4971233;28;20047;-56
2021/05/16 03:26:05;;;;;;;20.83;4.80;;;;;;;12.07;67.10;99971.81;4956194;28;20387;-54
2021/05/16 03:28:33;;;;;;;20.23;5.43;;;;;;;12.06;67.05;99972.94;4956039;28;20031;-53
2021/05/16 03:31:01;;;;;;;20.65;5.15;;;;;;;12.06;67.60;99978.38;4956059;28;20043;-51
2021/05/16 03:33:29;;;;;;;22.02;4.97;;;;;;;12.05;67.58;99976.75;4955676;28;20918;-53
2021/05/16 03:35:56;;;;;;;20.98;5.28;;;;;;;12.06;67.81;99976.47;4956153;28;20410;-53
2021/05/16 03:38:24;;;;;;;17.30;5.05;;;;;;;12.14;68.21;99973.03;4956023;28;20055;-54
2021/05/16 03:40:52;;;;;;;18.33;5.05;;;;;;;12.15;68.00;99973.88;4954753;29;20094;-54
2021/05/16 03:43:22;;;;;;;18.17;5.95;;;;;;;12.13;67.36;99976.09;4970681;28;20046;-51
2021/05/16 03:45:50;;;;;;;15.18;5.10;;;;;;;12.07;68.04;99975.34;4956000;28;20070;-53
2021/05/16 03:48:18;;;;;;;22.10;5.45;;;;;;;12.09;67.75;99970.41;4955446;28;20043;-54
2021/05/16 03:50:45;;;;;;;19.27;5.18;;;;;;;12.08;67.50;99979.72;4955973;28;20490;-55
2021/05/16 03:53:13;;;;;;;21.02;5.53;;;;;;;12.10;68.79;99976.69;4955701;28;20054;-56
2021/05/16 03:55:40;;;;;;;25.02;6.60;;;;;;;12.10;68.05;99979.41;4955747;28;20090;-52
2021/05/16 03:58:08;;;;;;;21.48;6.05;;;;;;;12.09;67.33;99975.84;4955538;28;20051;-54
2021/05/16 04:00:36;;;;;;;22.75;6.28;;;;;;;12.08;67.36;99981.63;4955601;28;20110;-53
2021/05/16 04:03:04;;;;;;;18.08;5.60;;;;;;;12.08;67.56;99970.72;4955476;28;20043;-53
2021/05/16 04:05:31;;;;;;;16.63;5.20;;;;;;;12.10;67.65;99976.69;4955351;28;20094;-55
2021/05/16 04:07:59;;;;;;;19.67;5.47;;;;;;;12.09;67.29;99980.50;4954596;28;20094;-54
2021/05/16 04:10:26;;;;;;;16.85;5.05;;;;;;;12.09;67.74;99985.97;4955064;28;20039;-53
2021/05/16 04:12:54;;;;;;;20.25;5.63;;;;;;;12.06;67.25;99986.56;4955504;28;20043;-54
2021/05/16 04:15:22;;;;;;;21.27;5.82;;;;;;;12.06;67.81;99981.13;4955482;28;20071;-52
2021/05/16 04:17:50;;;;;;;23.10;6.30;;;;;;;12.05;67.96;99988.50;4954977;28;20047;-54
2021/05/16 04:20:17;;;;;;;19.05;5.70;;;;;;;12.06;67.98;99992.84;4955267;28;20043;-55
2021/05/16 04:22:45;;;;;;;19.65;5.80;;;;;;;12.06;67.76;99989.31;4955535;28;20614;-54
2021/05/16 04:25:13;;;;;;;20.58;6.00;;;;;;;12.09;67.48;99994.16;4955160;28;20503;-54
2021/05/16 04:27:42;;;;;;;21.15;5.65;;;;;;;12.07;67.59;99991.72;4955154;28;20494;-55
2021/05/16 04:30:10;;;;;;;17.63;5.72;;;;;;;12.05;67.02;99990.41;4970199;28;20055;-55
2021/05/16 04:32:38;;;;;;;24.20;6.05;;;;;;;12.07;67.64;99993.66;4969399;28;20105;-53
2021/05/16 04:35:06;;;;;;;24.23;7.00;;;;;;;12.01;67.00;99990.19;4954131;29;20054;-52
2021/05/16 04:37:34;;;;;;;18.13;5.55;;;;;;;11.98;67.47;99990.81;4955029;28;20406;-53
2021/05/16 04:40:02;;;;;;;16.13;5.10;;;;;;;12.03;67.81;99987.19;4953510;29;20039;-54
2021/05/16 04:42:30;;;;;;;16.98;5.50;;;;;;;12.05;67.04;99987.66;4954811;28;20051;-53
2021/05/16 04:44:58;;;;;;;22.60;5.13;;;;;;;12.08;67.16;99987.09;4954797;28;20553;-55
2021/05/16 04:47:26;;;;;;;22.17;6.15;;;;;;;12.03;66.71;99987.19;4954569;28;20542;-54
2021/05/16 04:49:53;;;;;;;23.15;6.40;;;;;;;11.96;67.31;99993.00;4954472;28;20035;-52
2021/05/16 04:52:21;;;;;;;22.77;6.32;;;;;;;11.84;67.32;99985.25;4954718;28;20098;-55
2021/05/16 04:54:49;;;;;;;24.30;6.70;;;;;;;11.83;66.97;99993.72;4954497;28;20058;-53
2021/05/16 04:57:17;;;;;;;18.85;5.18;;;;;;;11.86;67.43;99995.88;4969401;28;20098;-53
2021/05/16 04:59:48;;;;;;;23.88;6.80;;;;;;;11.88;67.73;100005.44;4954620;28;20486;-55
2021/05/16 05:02:16;;;;;;;20.65;5.80;;;;;;;11.90;66.71;100003.19;4950570;29;20379;-55
2021/05/16 05:04:44;;;;;;;16.80;4.53;;;;;;;11.98;67.58;100011.81;4953122;29;20051;-53
2021/05/16 05:07:11;;;;;;;24.85;6.07;;;;;;;11.96;66.83;100006.66;4954013;28;20043;-56
2021/05/16 05:09:39;;;;;;;24.10;6.38;;;;;;;11.94;67.42;100001.50;4954353;28;20140;-55
2021/05/16 05:12:07;;;;;;;25.33;6.32;;;;;;;11.91;67.51;100013.00;4953342;29;20040;-54
2021/05/16 05:14:35;;;;;;;25.02;5.88;;;;;;;11.92;66.61;100014.63;4953760;28;20035;-55
2021/05/16 05:17:02;;;;;;;20.52;6.15;;;;;;;11.93;67.45;100010.00;4953017;29;20043;-55
2021/05/16 05:19:30;;;;;;;22.20;6.05;;;;;;;11.94;67.38;100012.41;4953638;28;20450;-54
2021/05/16 05:21:58;;;;;;;13.52;4.03;;;;;;;12.10;70.80;100009.47;4954159;28;20051;-52
2021/05/16 05:24:26;;;;;;;27.02;6.03;;;;;;;12.05;66.82;100020.44;4954085;28;20075;-55
2021/05/16 05:26:54;;;;;;;24.45;6.28;;;;;;;12.05;66.81;100018.53;4954233;28;20047;-56
2021/05/16 05:29:22;;;;;;;26.08;7.18;;;;;;;11.99;66.73;100010.72;4953629;28;20507;-53
2021/05/16 05:31:49;;;;;;;28.98;6.70;;;;;;;11.94;66.70;100008.88;4954277;28;20130;-53
2021/05/16 05:34:17;;;;;;;20.45;5.85;;;;;;;11.97;67.15;100018.38;4953843;28;20537;-52
2021/05/16 05:36:45;;;;;;;20.15;5.97;;;;;;;11.98;67.57;100012.66;4952824;29;20059;-53
2021/05/16 05:39:12;;;;;;;25.35;7.40;;;;;;;11.93;67.02;100010.81;4954030;28;20067;-51
2021/05/16 05:41:43;;;;;;;29.10;6.45;;;;;;;11.94;67.47;100012.41;4954025;28;20055;-53
2021/05/16 05:44:11;;;;;;;14.70;4.32;;;;;;;11.97;68.58;100019.19;4953464;28;20051;-54
2021/05/16 05:46:39;;;;;;;18.90;4.78;;;;;;;11.96;67.55;100022.25;4267898;28;10000803;-53
2021/05/16 05:49:07;;;;;;;15.13;5.15;;;;;;;12.12;70.21;100027.16;4951593;28;20063;-57
2021/05/16 05:51:35;;;;;;;24.70;5.93;;;;;;;12.12;68.09;100018.97;4951522;29;20040;-54
2021/05/16 05:54:04;;;;;;;20.70;5.32;;;;;;;12.00;66.88;100021.34;4951809;28;20035;-56
2021/05/16 05:56:31;;;;;;;27.55;6.68;;;;;;;11.93;67.38;100023.66;4951813;28;20043;-54
2021/05/16 05:58:59;;;;;;;17.88;5.40;;;;;;;11.91;67.20;100023.94;4950820;28;20450;-53
2021/05/16 06:01:27;;;;;;;27.40;7.45;;;;;;;11.83;67.30;100032.75;4951758;28;20058;-54
2021/05/16 06:03:54;;;;;;;27.83;5.82;;;;;;;11.78;68.00;100024.63;4951588;28;20581;-54
2021/05/16 06:06:22;;;;;;;32.60;6.80;;;;;;;11.73;67.31;100033.72;4951890;28;20518;-54
2021/05/16 06:08:50;;;;;;;25.25;6.40;;;;;;;11.70;67.49;100039.75;4966517;28;20460;-54
2021/05/16 06:11:18;;;;;;;30.75;6.95;;;;;;;11.70;67.64;100038.97;4965916;28;20126;-53
2021/05/16 06:13:45;;;;;;;25.92;6.28;;;;;;;11.70;68.34;100036.22;4947801;28;20048;-51
2021/05/16 06:16:13;;;;;;;21.38;5.57;;;;;;;11.75;68.38;100035.34;4942592;28;20498;-52
2021/05/16 06:18:40;;;;;;;24.13;5.68;;;;;;;11.80;67.49;100032.53;4949066;28;20052;-54
2021/05/16 06:21:08;;;;;;;20.85;5.70;;;;;;;11.80;67.15;100036.06;4951487;28;20063;-51
2021/05/16 06:23:45;;;;;;;24.08;6.50;;;;;;;11.78;67.59;100035.56;4949503;28;20117;-51
2021/05/16 06:26:12;;;;;;;25.27;6.10;;;;;;;11.79;67.47;100041.84;4951323;28;20098;-54
2021/05/16 06:28:40;;;;;;;20.60;5.80;;;;;;;11.80;67.61;100038.00;4951403;28;20044;-54
2021/05/16 06:31:21;;;;;;;28.45;7.50;;;;;;;11.78;67.92;100041.00;4952897;28;20043;-56
2021/05/16 06:33:49;;;;;;;25.02;6.78;;;;;;;11.72;67.91;100043.00;4954688;28;20117;-56
2021/05/16 06:36:17;;;;;;;26.63;7.22;;;;;;;11.66;67.78;100044.19;4954675;28;20058;-56
2021/05/16 06:38:45;;;;;;;26.45;6.43;;;;;;;11.73;68.06;100041.88;4955143;28;20851;-55
2021/05/16 06:41:13;;;;;;;22.83;5.93;;;;;;;11.74;68.28;100045.47;4953014;28;20051;-53
2021/05/16 06:43:41;;;;;;;22.02;5.85;;;;;;;11.77;67.89;100052.25;4953586;28;20454;-53
2021/05/16 06:46:09;;;;;;;17.35;4.75;;;;;;;11.85;68.15;100054.28;4955020;28;20443;-53
2021/05/16 06:48:36;;;;;;;19.27;5.30;;;;;;;11.95;68.90;100054.16;4940112;29;20434;-56
2021/05/16 06:51:04;;;;;;;20.23;5.30;;;;;;;12.04;69.24;100054.31;4954994;28;20043;-56
2021/05/16 06:53:33;;;;;;;25.25;6.80;;;;;;;11.98;66.95;100055.50;4958369;28;20095;-58
2021/05/16 06:56:01;;;;;;;26.52;7.43;;;;;;;11.95;66.92;100056.91;4962157;28;20063;-59
2021/05/16 06:58:29;;;;;;;29.60;7.18;;;;;;;11.90;67.70;100054.25;4957316;28;20032;-61
2021/05/16 07:00:56;;;;;;;24.05;6.30;;;;;;;11.87;67.79;100060.31;4954795;28;20079;-59
2021/05/16 07:03:24;;;;;;;22.73;6.75;;;;;;;11.85;67.98;100062.47;4958196;28;20054;-63
2021/05/16 07:05:52;;;;;;;26.10;6.53;;;;;;;11.82;67.83;100060.34;4948071;29;20040;-57
2021/05/16 07:08:21;;;;;;;23.45;7.07;;;;;;;11.83;68.01;100068.22;4948108;28;20055;-57
2021/05/16 07:10:48;;;;;;;28.23;7.30;;;;;;;11.86;67.34;100064.13;4953470;28;20130;-57
2021/05/16 07:13:18;;;;;;;26.38;6.45;;;;;;;11.90;67.64;100065.97;4952179;28;20078;-64
2021/05/16 07:15:46;;;;;;;18.90;5.38;;;;;;;11.96;68.01;100064.00;4968472;28;20043;-55
2021/05/16 07:18:15;;;;;;;24.75;7.25;;;;;;;12.00;66.99;100069.66;4968656;28;20066;-53
2021/05/16 07:20:43;;;;;;;23.70;6.90;;;;;;;12.02;67.76;100067.44;4953482;28;20415;-56
2021/05/16 07:23:12;;;;;;;16.17;5.18;;;;;;;12.04;67.65;100067.97;4954137;28;20043;-54
2021/05/16 07:25:40;;;;;;;26.70;8.70;;;;;;;12.05;66.73;100069.59;4955441;28;20047;-53
2021/05/16 07:28:08;;;;;;;23.48;7.28;;;;;;;12.07;67.54;100070.91;4955824;28;20069;-54
2021/05/16 07:30:36;;;;;;;27.83;8.38;;;;;;;12.11;66.96;100071.13;4970749;28;20046;-55
2021/05/16 07:33:03;;;;;;;24.48;7.13;;;;;;;12.10;66.82;100069.53;4955973;28;20375;-51
2021/05/16 07:35:31;;;;;;;25.80;8.63;;;;;;;12.10;66.45;100075.78;4955859;28;20047;-54
2021/05/16 07:37:59;;;;;;;27.77;7.82;;;;;;;12.12;67.24;100067.28;4955564;28;20063;-56
2021/05/16 07:40:27;;;;;;;27.52;7.47;;;;;;;12.13;67.43;100077.13;4955174;28;20090;-54
2021/05/16 07:42:54;;;;;;;26.80;7.47;;;;;;;12.13;67.20;100085.31;4968214;28;20710;-54
2021/05/16 07:45:23;;;;;;;22.30;7.35;;;;;;;12.12;67.20;100078.22;4955074;28;20102;-53
2021/05/16 07:47:50;;;;;;;23.65;7.78;;;;;;;12.13;66.78;100064.28;4953912;29;20063;-56
2021/05/16 07:50:18;;;;;;;22.23;6.03;;;;;;;12.26;68.35;100070.88;4955189;28;20434;-54
2021/05/16 07:52:47;;;;;;;25.58;6.60;;;;;;;12.34;66.97;100075.69;4955347;28;20059;-53
2021/05/16 07:55:14;;;;;;;22.15;6.50;;;;;;;12.31;66.21;100070.84;4954338;28;20494;-57
2021/05/16 07:57:42;;;;;;;18.77;5.43;;;;;;;12.33;66.28;100068.59;4955065;28;20039;-53
2021/05/16 08:00:11;;;;;;;23.58;6.60;;;;;;;12.36;66.41;100070.75;4955325;28;20074;-54
2021/05/16 08:02:41;;;;;;;19.25;5.28;;;;;;;12.40;67.07;100067.41;4955015;28;20043;-53
2021/05/16 08:05:10;;;;;;;20.92;6.15;;;;;;;12.43;66.49;100064.88;4954787;28;20048;-56
2021/05/16 08:07:38;;;;;;;21.85;6.47;;;;;;;12.43;65.86;100069.53;4954812;28;20431;-53
2021/05/16 08:10:07;;;;;;;24.30;5.80;;;;;;;12.40;66.14;100072.88;4954272;28;20039;-54
2021/05/16 08:12:35;;;;;;;23.98;6.10;;;;;;;12.44;65.90;100073.91;4954783;28;20086;-54
2021/05/16 08:15:04;;;;;;;21.95;5.90;;;;;;;12.44;65.64;100062.97;4948029;28;20122;-55
2021/05/16 08:17:33;;;;;;;18.67;5.05;;;;;;;12.47;65.36;100070.56;4949014;28;20070;-52
2021/05/16 08:20:05;;;;;;;17.80;5.50;;;;;;;12.54;64.94;100081.94;4952745;28;20086;-53
2021/05/16 08:22:35;;;;;;;27.65;6.50;;;;;;;12.63;66.32;100071.09;4954078;28;20047;-56
2021/05/16 08:25:10;;;;;;;29.92;6.50;;;;;;;12.61;64.63;100068.69;4954270;28;20047;-53
2021/05/16 08:27:40;;;;;;;18.98;6.03;;;;;;;12.64;63.96;100067.28;4969714;28;20421;-54
2021/05/16 08:30:09;;;;;;;26.17;7.25;;;;;;;12.66;64.42;100060.38;4954485;28;20490;-54
2021/05/16 08:32:38;;;;;;;25.17;6.55;;;;;;;12.77;65.09;100067.31;4969353;28;20081;-53
2021/05/16 08:35:06;;;;;;;24.25;7.43;;;;;;;12.92;68.28;100059.94;4953057;29;20043;-57
2021/05/16 08:37:34;;;;;;;26.67;7.22;;;;;;;13.06;69.07;100055.28;4954213;28;20082;-54
2021/05/16 08:40:03;;;;;;;36.50;7.80;;;;;;;13.32;67.91;100055.59;4954299;28;20035;-51
2021/05/16 08:42:32;;;;;;;22.92;5.95;;;;;;;13.40;64.90;100056.81;4954472;28;20458;-54
2021/05/16 08:45:00;;;;;;;23.80;7.22;;;;;;;13.33;65.20;100056.44;4953480;28;20053;-54
2021/05/16 08:47:29;;;;;;;20.02;6.63;;;;;;;13.26;64.88;100065.00;4954566;28;20074;-53
2021/05/16 08:49:57;;;;;;;25.90;6.45;;;;;;;13.32;70.21;100052.84;4952487;29;20042;-53
2021/05/16 08:52:25;;;;;;;20.80;6.10;;;;;;;13.44;64.08;100055.06;4953853;28;20491;-51
2021/05/16 08:54:57;;;;;;;20.20;5.70;;;;;;;13.28;65.49;100048.31;4953418;28;20070;-51
2021/05/16 08:57:38;;;;;;;21.48;5.82;;;;;;;13.27;63.11;100054.88;4954399;28;20494;-51
2021/05/16 09:00:13;;;;;;;21.13;5.82;;;;;;;13.13;61.78;100054.84;4953805;28;20466;-55
2021/05/16 09:03:05;;;;;;;18.60;5.15;;;;;;;13.08;62.01;100055.78;4954068;28;20794;-57
2021/05/16 09:05:37;;;;;;;20.98;5.43;;;;;;;13.14;62.24;100053.75;4953707;28;20494;-51
2021/05/16 09:08:20;;;;;;;27.63;6.57;;;;;;;13.48;64.92;100058.03;4952586;29;20062;-56
2021/05/16 09:10:49;;;;;;;20.05;5.70;;;;;;;13.56;60.37;100069.03;4950829;29;20093;-53
2021/05/16 09:13:26;;;;;;;18.70;4.75;;;;;;;13.26;59.24;100056.00;4952783;28;20062;-56
2021/05/16 09:16:04;;;;;;;18.23;4.85;;;;;;;13.13;61.67;100058.44;4265325;28;10000797;-55
2021/05/16 09:18:48;;;;;;;20.40;4.90;;;;;;;13.16;57.39;100067.94;4951746;28;20035;-55
2021/05/16 09:21:32;;;;;;;18.38;4.40;;;;;;;13.11;57.73;100060.66;4950830;28;20043;-56
2021/05/16 09:24:00;;;;;;;18.45;4.75;;;;;;;13.16;56.37;100059.75;4947081;29;20115;-54
2021/05/16 09:26:51;;;;;;;16.88;5.45;;;;;;;13.29;58.27;100058.94;4951284;29;20509;-56
2021/05/16 09:29:26;;;;;;;23.83;5.57;;;;;;;13.34;57.77;100044.34;4942020;29;20086;-55
2021/05/16 09:32:01;;;;;;;23.13;5.35;;;;;;;13.33;58.35;100042.75;4966070;28;20102;-56
2021/05/16 09:34:31;;;;;;;25.67;7.28;;;;;;;13.44;63.04;100041.41;4951292;28;20047;-56
2021/05/16 09:36:59;;;;;;;16.88;5.00;;;;;;;13.52;58.94;100043.44;4951470;28;20050;-56
2021/05/16 09:39:32;;;;;;;18.90;5.22;;;;;;;13.75;59.87;100041.53;4950807;28;20521;-53
2021/05/16 09:42:17;;;;;;;24.10;6.05;;;;;;;13.69;58.99;100037.31;4951607;28;20055;-52
2021/05/16 09:44:49;;;;;;;18.33;5.38;;;;;;;13.65;58.33;100047.25;4951102;28;20035;-51
2021/05/16 09:47:26;;;;;;;16.67;5.15;;;;;;;13.61;57.94;100038.84;4950126;29;20062;-55
2021/05/16 09:49:56;;;;;;;22.63;5.83;;;;;;;13.55;58.09;100042.81;4949201;28;20059;-57
2021/05/16 09:52:33;;;;;;;21.80;5.63;;;;;;;13.55;57.25;100037.34;4951019;28;20043;-53
2021/05/16 09:55:10;;;;;;;18.58;4.70;;;;;;;13.56;58.28;100030.72;4948642;28;20047;-53
2021/05/16 09:57:46;;;;;;;23.55;5.57;;;;;;;13.68;58.42;100026.66;4949775;28;20074;-54
2021/05/16 10:00:16;;;;;;;15.68;4.90;;;;;;;13.79;57.64;100028.06;4947197;28;20087;-56
2021/05/16 10:02:45;;;;;;;23.98;6.50;;;;;;;13.91;60.03;100022.84;4951404;28;20561;-54
2021/05/16 10:05:16;;;;;;;23.40;7.60;;;;;;;14.01;61.98;100019.84;4951577;28;20074;-53
2021/05/16 10:07:44;;;;;;;21.80;6.65;;;;;;;14.13;59.48;100022.03;4963911;28;20048;-54
2021/05/16 10:10:12;;;;;;;18.48;5.80;;;;;;;14.16;61.69;100020.59;4950648;29;20391;-53
2021/05/16 10:12:41;;;;;;;21.23;5.43;;;;;;;14.03;57.04;100020.34;4953991;29;20145;-51
2021/05/16 10:15:13;;;;;;;17.98;5.32;;;;;;;13.99;58.26;100007.59;4955113;28;20250;-55
2021/05/16 10:17:44;;;;;;;19.63;6.40;;;;;;;14.31;63.39;100008.44;4954620;29;20059;-56
2021/05/16 10:20:16;;;;;;;18.60;5.85;;;;;;;14.41;58.54;100002.72;4954234;28;20137;-54
2021/05/16 10:22:58;;;;;;;19.30;4.10;;;;;;;14.28;56.84;100005.19;4952018;29;20046;-54
2021/05/16 10:25:38;;;;;;;16.45;5.03;;;;;;;14.26;57.19;99995.69;4954716;28;20043;-53
2021/05/16 10:28:06;;;;;;;16.90;5.13;;;;;;;14.22;58.02;100000.19;4954555;28;20086;-54
2021/05/16 10:30:34;;;;;;;16.13;5.00;;;;;;;14.27;58.95;99991.84;4954462;28;20051;-55
2021/05/16 10:33:02;;;;;;;25.48;5.68;;;;;;;14.36;58.08;99992.69;4969590;28;20781;-55
2021/05/16 10:35:50;;;;;;;19.10;5.70;;;;;;;14.41;61.77;99991.75;4953394;29;20070;-54
2021/05/16 10:38:34;;;;;;;21.55;5.57;;;;;;;14.54;61.88;99990.88;4954359;28;20035;-55
2021/05/16 10:41:25;;;;;;;18.00;5.70;;;;;;;14.59;63.51;99984.44;4954274;28;20035;-56
2021/05/16 10:44:28;;;;;;;19.88;6.35;;;;;;;14.82;62.89;99980.53;4954325;28;20561;-55
2021/05/16 10:46:56;;;;;;;18.38;5.28;;;;;;;14.94;59.03;99981.88;4940442;29;20074;-55
2021/05/16 10:49:25;;;;;;;15.38;4.90;;;;;;;15.05;61.94;99969.44;4952442;28;20066;-54
2021/05/16 10:51:53;;;;;;;15.95;5.32;;;;;;;15.00;56.35;99975.88;4953858;28;20106;-54
2021/05/16 10:54:31;;;;;;;15.07;4.35;;;;;;;14.88;59.23;99981.97;4954189;28;20688;-55
2021/05/16 10:57:15;;;;;;;13.52;4.60;;;;;;;14.86;54.19;99980.69;4954444;28;20043;-56
2021/05/16 10:59:45;;;;;;;13.27;4.43;;;;;;;14.72;53.59;99980.81;4954477;28;20521;-54
2021/05/16 11:02:58;;;;;;;12.32;3.58;;;;;;;14.70;57.72;99974.84;4953963;28;20094;-54
2021/05/16 11:05:58;;;;;;;16.38;3.78;;;;;;;14.69;53.09;99973.19;4954226;28;20047;-53
2021/05/16 11:08:33;;;;;;;13.70;3.63;;;;;;;14.65;51.22;99964.00;4970002;28;20086;-55
2021/05/16 11:11:22;;;;;;;14.13;3.92;;;;;;;14.62;52.37;99970.09;4956634;28;20046;-52
2021/05/16 11:13:50;;;;;;;11.30;3.30;;;;;;;14.63;52.26;99971.75;4956535;28;20039;-52
2021/05/16 11:16:18;;;;;;;15.52;4.18;;;;;;;14.59;52.61;99966.06;4954478;28;20564;-56
2021/05/16 11:18:47;;;;;;;13.63;3.78;;;;;;;14.61;52.35;99963.81;4955345;28;20782;-55
2021/05/16 11:21:18;;;;;;;13.10;3.72;;;;;;;14.58;51.61;99960.91;4954783;29;20051;-53
2021/05/16 11:23:51;;;;;;;13.82;3.80;;;;;;;14.57;52.64;99968.31;4939955;29;20071;-54
2021/05/16 11:26:28;;;;;;;13.32;3.45;;;;;;;14.56;53.40;99960.41;4954873;29;20051;-55
2021/05/16 11:28:57;;;;;;;11.77;3.60;;;;;;;14.54;53.89;99962.66;4971235;28;20094;-52
2021/05/16 11:31:28;;;;;;;14.10;3.70;;;;;;;14.53;53.71;99961.00;4955373;28;20051;-56
2021/05/16 11:33:58;;;;;;;13.73;4.30;;;;;;;14.60;53.96;99950.41;4956171;28;20510;-56
2021/05/16 11:36:30;;;;;;;12.93;4.32;;;;;;;14.80;55.69;99949.84;4956091;28;20036;-56